sensor_id;sensor_type;location;lat;lon;timestamp;pressure;altitude;pressure_sealevel;temperature;humidity
60244;BME280;46106;51.468;5.814;2023-04-06T00:00:54;101509.16;;;3.39;100.00
60244;BME280;46106;51.468;5.814;2023-04-06T00:03:20;101508.69;;;3.28;100.00
60244;BME280;46106;51.468;5.814;2023-04-06T00:05:47;101507.59;;;3.34;100.00
60244;BME280;46106;51.468;5.814;2023-04-06T00:08:13;101507.47;;;3.37;100.00
60244;BME280;46106;51.468;5.814;2023-04-06T00:10:38;101507.28;;;3.18;100.00
60244;BME280;46106;51.468;5.814;2023-04-06T00:13:05;101504.25;;;3.27;100.00
60244;BME280;46106;51.468;5.814;2023-04-06T00:15:30;101494.28;;;3.27;100.00
60244;BME280;46106;51.468;5.814;2023-04-06T00:17:56;101502.13;;;3.35;100.00
60244;BME280;46106;51.468;5.814;2023-04-06T00:20:22;101508.06;;;3.21;100.00
60244;BME280;46106;51.468;5.814;2023-04-06T00:22:47;101495.88;;;3.09;100.00
60244;BME280;46106;51.468;5.814;2023-04-06T00:25:13;101501.00;;;3.17;100.00
60244;BME280;46106;51.468;5.814;2023-04-06T00:27:40;101491.00;;;3.19;100.00
60244;BME280;46106;51.468;5.814;2023-04-06T00:30:07;101498.91;;;3.25;100.00
60244;BME280;46106;51.468;5.814;2023-04-06T00:32:32;101494.25;;;3.29;100.00
60244;BME280;46106;51.468;5.814;2023-04-06T00:34:58;101487.66;;;3.36;100.00
60244;BME280;46106;51.468;5.814;2023-04-06T00:37:24;101478.81;;;3.07;100.00
60244;BME280;46106;51.468;5.814;2023-04-06T00:39:49;101483.88;;;2.93;100.00
60244;BME280;46106;51.468;5.814;2023-04-06T00:42:17;101468.41;;;2.97;100.00
60244;BME280;46106;51.468;5.814;2023-04-06T00:44:51;101481.22;;;2.91;100.00
60244;BME280;46106;51.468;5.814;2023-04-06T00:47:17;101468.06;;;2.82;100.00
60244;BME280;46106;51.468;5.814;2023-04-06T00:49:42;101470.75;;;2.82;100.00
60244;BME280;46106;51.468;5.814;2023-04-06T00:52:08;101462.00;;;2.75;100.00
60244;BME280;46106;51.468;5.814;2023-04-06T00:54:33;101464.91;;;2.69;100.00
60244;BME280;46106;51.468;5.814;2023-04-06T00:56:58;101464.81;;;2.72;100.00
60244;BME280;46106;51.468;5.814;2023-04-06T00:59:24;101457.84;;;2.65;100.00
60244;BME280;46106;51.468;5.814;2023-04-06T01:01:51;101455.28;;;2.61;100.00
60244;BME280;46106;51.468;5.814;2023-04-06T01:04:17;101454.44;;;2.60;100.00
60244;BME280;46106;51.468;5.814;2023-04-06T01:06:42;101454.31;;;2.63;100.00
60244;BME280;46106;51.468;5.814;2023-04-06T01:09:08;101450.63;;;2.66;100.00
60244;BME280;46106;51.468;5.814;2023-04-06T01:11:33;101435.06;;;2.72;100.00
60244;BME280;46106;51.468;5.814;2023-04-06T01:13:59;101444.38;;;2.64;100.00
60244;BME280;46106;51.468;5.814;2023-04-06T01:16:24;101445.88;;;2.72;100.00
60244;BME280;46106;51.468;5.814;2023-04-06T01:18:50;101433.19;;;2.74;100.00
60244;BME280;46106;51.468;5.814;2023-04-06T01:21:16;101432.91;;;2.82;100.00
60244;BME280;46106;51.468;5.814;2023-04-06T01:23:45;101438.09;;;2.87;100.00
60244;BME280;46106;51.468;5.814;2023-04-06T01:26:13;101411.34;;;2.55;100.00
60244;BME280;46106;51.468;5.814;2023-04-06T01:28:39;101429.94;;;2.65;100.00
60244;BME280;46106;51.468;5.814;2023-04-06T01:31:08;101424.75;;;2.58;100.00
60244;BME280;46106;51.468;5.814;2023-04-06T01:33:34;101435.34;;;2.65;100.00
60244;BME280;46106;51.468;5.814;2023-04-06T01:35:59;101429.81;;;2.68;100.00
60244;BME280;46106;51.468;5.814;2023-04-06T01:38:25;101432.81;;;2.60;100.00
60244;BME280;46106;51.468;5.814;2023-04-06T01:40:52;101431.16;;;2.56;100.00
60244;BME280;46106;51.468;5.814;2023-04-06T01:43:17;101423.59;;;2.41;100.00
60244;BME280;46106;51.468;5.814;2023-04-06T01:45:43;101425.41;;;2.40;100.00
60244;BME280;46106;51.468;5.814;2023-04-06T01:48:08;101414.88;;;2.32;100.00
60244;BME280;46106;51.468;5.814;2023-04-06T01:50:34;101415.09;;;2.26;100.00
60244;BME280;46106;51.468;5.814;2023-04-06T01:53:00;101405.41;;;2.20;100.00
60244;BME280;46106;51.468;5.814;2023-04-06T01:55:26;101415.53;;;2.39;100.00
60244;BME280;46106;51.468;5.814;2023-04-06T01:57:51;101414.72;;;2.37;100.00
60244;BME280;46106;51.468;5.814;2023-04-06T02:00:17;101410.25;;;2.36;100.00
60244;BME280;46106;51.468;5.814;2023-04-06T02:02:42;101411.75;;;2.45;100.00
60244;BME280;46106;51.468;5.814;2023-04-06T02:05:08;101390.63;;;2.31;100.00
60244;BME280;46106;51.468;5.814;2023-04-06T02:07:33;101402.75;;;2.44;100.00
60244;BME280;46106;51.468;5.814;2023-04-06T02:09:59;101391.53;;;2.31;100.00
60244;BME280;46106;51.468;5.814;2023-04-06T02:12:25;101394.28;;;2.30;100.00
60244;BME280;46106;51.468;5.814;2023-04-06T02:14:50;101383.47;;;2.30;100.00
60244;BME280;46106;51.468;5.814;2023-04-06T02:17:16;101401.25;;;2.35;100.00
60244;BME280;46106;51.468;5.814;2023-04-06T02:19:41;101391.81;;;2.47;100.00
60244;BME280;46106;51.468;5.814;2023-04-06T02:22:07;101382.25;;;2.38;100.00
60244;BME280;46106;51.468;5.814;2023-04-06T02:24:32;101386.81;;;2.36;100.00
60244;BME280;46106;51.468;5.814;2023-04-06T02:26:58;101384.94;;;2.38;100.00
60244;BME280;46106;51.468;5.814;2023-04-06T02:29:24;101374.09;;;2.15;100.00
60244;BME280;46106;51.468;5.814;2023-04-06T02:31:49;101371.41;;;2.15;100.00
60244;BME280;46106;51.468;5.814;2023-04-06T02:34:15;101370.94;;;2.27;100.00
60244;BME280;46106;51.468;5.814;2023-04-06T02:36:46;101373.19;;;2.14;100.00
60244;BME280;46106;51.468;5.814;2023-04-06T02:39:12;101374.69;;;2.23;100.00
60244;BME280;46106;51.468;5.814;2023-04-06T02:41:38;101378.78;;;2.35;100.00
60244;BME280;46106;51.468;5.814;2023-04-06T02:44:07;101373.00;;;2.44;100.00
60244;BME280;46106;51.468;5.814;2023-04-06T02:46:34;101372.34;;;2.63;100.00
60244;BME280;46106;51.468;5.814;2023-04-06T02:48:59;101368.47;;;2.70;100.00
60244;BME280;46106;51.468;5.814;2023-04-06T02:51:26;101362.66;;;2.81;100.00
60244;BME280;46106;51.468;5.814;2023-04-06T02:53:52;101360.34;;;2.70;100.00
60244;BME280;46106;51.468;5.814;2023-04-06T02:56:17;101351.06;;;2.53;100.00
60244;BME280;46106;51.468;5.814;2023-04-06T02:58:43;101358.88;;;2.61;100.00
60244;BME280;46106;51.468;5.814;2023-04-06T03:01:08;101356.72;;;2.71;100.00
60244;BME280;46106;51.468;5.814;2023-04-06T03:03:34;101342.94;;;2.77;100.00
60244;BME280;46106;51.468;5.814;2023-04-06T03:05:59;101345.59;;;2.79;100.00
60244;BME280;46106;51.468;5.814;2023-04-06T03:08:28;101345.84;;;2.72;100.00
60244;BME280;46106;51.468;5.814;2023-04-06T03:10:54;101351.03;;;2.77;100.00
60244;BME280;46106;51.468;5.814;2023-04-06T03:13:20;101353.56;;;2.82;100.00
60244;BME280;46106;51.468;5.814;2023-04-06T03:15:46;101338.13;;;2.62;100.00
60244;BME280;46106;51.468;5.814;2023-04-06T03:18:11;101347.84;;;2.67;100.00
60244;BME280;46106;51.468;5.814;2023-04-06T03:20:37;101351.13;;;2.75;100.00
60244;BME280;46106;51.468;5.814;2023-04-06T03:23:02;101344.66;;;2.80;100.00
60244;BME280;46106;51.468;5.814;2023-04-06T03:25:28;101333.38;;;2.92;100.00
60244;BME280;46106;51.468;5.814;2023-04-06T03:27:55;101346.38;;;3.04;100.00
60244;BME280;46106;51.468;5.814;2023-04-06T03:30:20;101318.88;;;2.93;100.00
60244;BME280;46106;51.468;5.814;2023-04-06T03:32:46;101333.69;;;3.06;100.00
60244;BME280;46106;51.468;5.814;2023-04-06T03:35:11;101333.75;;;3.05;100.00
60244;BME280;46106;51.468;5.814;2023-04-06T03:37:37;101333.63;;;3.08;100.00
60244;BME280;46106;51.468;5.814;2023-04-06T03:40:04;101330.69;;;3.14;100.00
60244;BME280;46106;51.468;5.814;2023-04-06T03:42:29;101335.78;;;3.22;100.00
60244;BME280;46106;51.468;5.814;2023-04-06T03:44:56;101330.19;;;3.26;100.00
60244;BME280;46106;51.468;5.814;2023-04-06T03:47:22;101334.56;;;3.29;100.00
60244;BME280;46106;51.468;5.814;2023-04-06T03:49:47;101329.78;;;3.36;100.00
60244;BME280;46106;51.468;5.814;2023-04-06T03:52:12;101325.28;;;3.36;100.00
60244;BME280;46106;51.468;5.814;2023-04-06T03:54:38;101323.38;;;3.38;100.00
60244;BME280;46106;51.468;5.814;2023-04-06T03:57:04;101318.53;;;3.46;100.00
60244;BME280;46106;51.468;5.814;2023-04-06T03:59:29;101326.72;;;3.45;100.00
60244;BME280;46106;51.468;5.814;2023-04-06T04:01:55;101322.03;;;3.48;100.00
60244;BME280;46106;51.468;5.814;2023-04-06T04:04:20;101323.75;;;3.51;100.00
60244;BME280;46106;51.468;5.814;2023-04-06T04:06:46;101325.50;;;3.52;100.00
60244;BME280;46106;51.468;5.814;2023-04-06T04:09:11;101318.28;;;3.53;100.00
60244;BME280;46106;51.468;5.814;2023-04-06T04:11:37;101296.88;;;3.46;100.00
60244;BME280;46106;51.468;5.814;2023-04-06T04:14:02;101323.03;;;3.68;100.00
60244;BME280;46106;51.468;5.814;2023-04-06T04:16:28;101314.16;;;3.64;100.00
60244;BME280;46106;51.468;5.814;2023-04-06T04:18:54;101315.66;;;3.72;100.00
60244;BME280;46106;51.468;5.814;2023-04-06T04:21:19;101311.56;;;3.61;100.00
60244;BME280;46106;51.468;5.814;2023-04-06T04:23:45;101321.00;;;3.73;100.00
60244;BME280;46106;51.468;5.814;2023-04-06T04:26:10;101322.69;;;3.76;100.00
60244;BME280;46106;51.468;5.814;2023-04-06T04:28:36;101328.88;;;3.79;100.00
60244;BME280;46106;51.468;5.814;2023-04-06T04:31:01;101329.94;;;3.75;100.00
60244;BME280;46106;51.468;5.814;2023-04-06T04:33:27;101335.81;;;3.64;100.00
60244;BME280;46106;51.468;5.814;2023-04-06T04:35:52;101336.25;;;3.54;100.00
60244;BME280;46106;51.468;5.814;2023-04-06T04:38:18;101341.69;;;3.54;100.00
60244;BME280;46106;51.468;5.814;2023-04-06T04:40:43;101337.22;;;3.53;100.00
60244;BME280;46106;51.468;5.814;2023-04-06T04:43:09;101330.03;;;3.52;100.00
60244;BME280;46106;51.468;5.814;2023-04-06T04:45:35;101330.22;;;3.69;100.00
60244;BME280;46106;51.468;5.814;2023-04-06T04:48:00;101331.75;;;3.75;100.00
60244;BME280;46106;51.468;5.814;2023-04-06T04:50:26;101323.69;;;3.73;100.00
60244;BME280;46106;51.468;5.814;2023-04-06T04:52:51;101325.34;;;3.77;100.00
60244;BME280;46106;51.468;5.814;2023-04-06T04:55:16;101329.72;;;3.80;100.00
60244;BME280;46106;51.468;5.814;2023-04-06T04:57:43;101318.91;;;3.80;100.00
60244;BME280;46106;51.468;5.814;2023-04-06T05:00:08;101306.78;;;3.68;100.00
60244;BME280;46106;51.468;5.814;2023-04-06T05:02:34;101319.94;;;3.77;100.00
60244;BME280;46106;51.468;5.814;2023-04-06T05:05:00;101325.13;;;3.82;100.00
60244;BME280;46106;51.468;5.814;2023-04-06T05:07:28;101324.44;;;3.77;100.00
60244;BME280;46106;51.468;5.814;2023-04-06T05:09:53;101322.22;;;3.86;100.00
60244;BME280;46106;51.468;5.814;2023-04-06T05:12:19;101319.56;;;3.85;100.00
60244;BME280;46106;51.468;5.814;2023-04-06T05:14:45;101290.41;;;3.71;100.00
60244;BME280;46106;51.468;5.814;2023-04-06T05:17:10;101311.59;;;3.82;100.00
60244;BME280;46106;51.468;5.814;2023-04-06T05:19:39;101319.78;;;4.01;100.00
60244;BME280;46106;51.468;5.814;2023-04-06T05:22:05;101316.50;;;3.72;100.00
60244;BME280;46106;51.468;5.814;2023-04-06T05:24:30;101316.81;;;3.86;100.00
60244;BME280;46106;51.468;5.814;2023-04-06T05:26:55;101321.81;;;3.96;100.00
60244;BME280;46106;51.468;5.814;2023-04-06T05:29:21;101318.03;;;4.00;100.00
60244;BME280;46106;51.468;5.814;2023-04-06T05:31:47;101329.22;;;3.92;100.00
60244;BME280;46106;51.468;5.814;2023-04-06T05:34:12;101324.53;;;3.96;100.00
60244;BME280;46106;51.468;5.814;2023-04-06T05:36:38;101317.94;;;4.01;100.00
60244;BME280;46106;51.468;5.814;2023-04-06T05:39:05;101314.25;;;4.04;100.00
60244;BME280;46106;51.468;5.814;2023-04-06T05:41:31;101318.72;;;4.05;100.00
60244;BME280;46106;51.468;5.814;2023-04-06T05:43:56;101320.13;;;4.14;100.00
60244;BME280;46106;51.468;5.814;2023-04-06T05:46:22;101320.34;;;4.09;100.00
60244;BME280;46106;51.468;5.814;2023-04-06T05:48:48;101322.84;;;4.14;100.00
60244;BME280;46106;51.468;5.814;2023-04-06T05:51:13;101307.13;;;4.01;100.00
60244;BME280;46106;51.468;5.814;2023-04-06T05:53:38;101313.91;;;4.12;100.00
60244;BME280;46106;51.468;5.814;2023-04-06T05:56:04;101323.19;;;4.27;100.00
60244;BME280;46106;51.468;5.814;2023-04-06T05:58:30;101318.03;;;4.20;100.00
60244;BME280;46106;51.468;5.814;2023-04-06T06:01:00;101321.78;;;4.37;100.00
60244;BME280;46106;51.468;5.814;2023-04-06T06:03:26;101321.31;;;4.48;100.00
60244;BME280;46106;51.468;5.814;2023-04-06T06:05:51;101316.91;;;4.45;100.00
60244;BME280;46106;51.468;5.814;2023-04-06T06:08:17;101319.19;;;4.54;100.00
60244;BME280;46106;51.468;5.814;2023-04-06T06:10:42;101316.19;;;4.60;100.00
60244;BME280;46106;51.468;5.814;2023-04-06T06:13:08;101312.38;;;4.65;100.00
60244;BME280;46106;51.468;5.814;2023-04-06T06:15:33;101308.34;;;4.54;100.00
60244;BME280;46106;51.468;5.814;2023-04-06T06:17:59;101311.66;;;4.80;100.00
60244;BME280;46106;51.468;5.814;2023-04-06T06:20:25;101306.00;;;4.85;100.00
60244;BME280;46106;51.468;5.814;2023-04-06T06:22:51;101302.97;;;5.10;100.00
60244;BME280;46106;51.468;5.814;2023-04-06T06:25:17;101312.97;;;5.09;100.00
60244;BME280;46106;51.468;5.814;2023-04-06T06:27:43;101309.53;;;5.06;100.00
60244;BME280;46106;51.468;5.814;2023-04-06T06:30:08;101304.28;;;5.20;100.00
60244;BME280;46106;51.468;5.814;2023-04-06T06:32:34;101309.81;;;5.19;100.00
60244;BME280;46106;51.468;5.814;2023-04-06T06:35:00;101307.00;;;5.20;100.00
60244;BME280;46106;51.468;5.814;2023-04-06T06:37:25;101304.28;;;5.20;100.00
60244;BME280;46106;51.468;5.814;2023-04-06T06:39:52;101314.03;;;5.24;100.00
60244;BME280;46106;51.468;5.814;2023-04-06T06:42:18;101303.91;;;5.28;100.00
60244;BME280;46106;51.468;5.814;2023-04-06T06:44:43;101309.44;;;5.26;100.00
60244;BME280;46106;51.468;5.814;2023-04-06T06:47:09;101307.22;;;5.34;100.00
60244;BME280;46106;51.468;5.814;2023-04-06T06:49:34;101309.22;;;5.48;100.00
60244;BME280;46106;51.468;5.814;2023-04-06T06:52:01;101314.66;;;5.48;100.00
60244;BME280;46106;51.468;5.814;2023-04-06T06:54:28;101308.97;;;5.70;100.00
60244;BME280;46106;51.468;5.814;2023-04-06T06:56:53;101282.41;;;5.77;100.00
60244;BME280;46106;51.468;5.814;2023-04-06T06:59:20;101305.81;;;5.80;100.00
60244;BME280;46106;51.468;5.814;2023-04-06T07:01:45;101303.97;;;5.80;100.00
60244;BME280;46106;51.468;5.814;2023-04-06T07:04:14;101311.41;;;5.94;100.00
60244;BME280;46106;51.468;5.814;2023-04-06T07:06:39;101308.22;;;5.86;100.00
60244;BME280;46106;51.468;5.814;2023-04-06T07:09:05;101309.19;;;6.02;100.00
60244;BME280;46106;51.468;5.814;2023-04-06T07:11:31;101309.97;;;6.22;100.00
60244;BME280;46106;51.468;5.814;2023-04-06T07:13:56;101299.97;;;6.05;100.00
60244;BME280;46106;51.468;5.814;2023-04-06T07:16:22;101289.84;;;6.09;100.00
60244;BME280;46106;51.468;5.814;2023-04-06T07:18:47;101309.00;;;6.23;100.00
60244;BME280;46106;51.468;5.814;2023-04-06T07:21:13;101290.72;;;6.09;100.00
60244;BME280;46106;51.468;5.814;2023-04-06T07:23:38;101298.31;;;6.20;100.00
60244;BME280;46106;51.468;5.814;2023-04-06T07:26:04;101288.72;;;6.13;100.00
60244;BME280;46106;51.468;5.814;2023-04-06T07:28:29;101285.25;;;6.27;100.00
60244;BME280;46106;51.468;5.814;2023-04-06T07:30:55;101289.63;;;6.29;100.00
60244;BME280;46106;51.468;5.814;2023-04-06T07:33:20;101281.56;;;6.28;100.00
60244;BME280;46106;51.468;5.814;2023-04-06T07:35:46;101300.97;;;6.37;100.00
60244;BME280;46106;51.468;5.814;2023-04-06T07:38:11;101291.53;;;6.44;100.00
60244;BME280;46106;51.468;5.814;2023-04-06T07:40:37;101296.44;;;6.54;100.00
60244;BME280;46106;51.468;5.814;2023-04-06T07:43:03;101298.88;;;6.42;100.00
60244;BME280;46106;51.468;5.814;2023-04-06T07:45:29;101278.81;;;6.45;100.00
60244;BME280;46106;51.468;5.814;2023-04-06T07:47:54;101286.56;;;6.69;100.00
60244;BME280;46106;51.468;5.814;2023-04-06T07:50:20;101273.75;;;6.87;100.00
60244;BME280;46106;51.468;5.814;2023-04-06T07:52:45;101280.25;;;7.00;100.00
60244;BME280;46106;51.468;5.814;2023-04-06T07:55:13;101290.97;;;7.03;100.00
60244;BME280;46106;51.468;5.814;2023-04-06T07:57:39;101275.88;;;7.13;100.00
60244;BME280;46106;51.468;5.814;2023-04-06T08:00:05;101282.88;;;7.17;100.00
60244;BME280;46106;51.468;5.814;2023-04-06T08:02:34;101292.22;;;7.13;100.00
60244;BME280;46106;51.468;5.814;2023-04-06T08:04:59;101288.84;;;7.24;100.00
60244;BME280;46106;51.468;5.814;2023-04-06T08:07:25;101264.25;;;7.10;100.00
60244;BME280;46106;51.468;5.814;2023-04-06T08:09:51;101279.16;;;7.34;100.00
60244;BME280;46106;51.468;5.814;2023-04-06T08:12:17;101288.50;;;7.30;100.00
60244;BME280;46106;51.468;5.814;2023-04-06T08:14:42;101290.63;;;7.25;100.00
60244;BME280;46106;51.468;5.814;2023-04-06T08:17:08;101279.03;;;7.22;100.00
60244;BME280;46106;51.468;5.814;2023-04-06T08:19:33;101283.81;;;7.48;100.00
60244;BME280;46106;51.468;5.814;2023-04-06T08:21:59;101284.72;;;7.33;100.00
60244;BME280;46106;51.468;5.814;2023-04-06T08:24:24;101286.53;;;7.48;100.00
60244;BME280;46106;51.468;5.814;2023-04-06T08:26:50;101285.34;;;7.68;100.00
60244;BME280;46106;51.468;5.814;2023-04-06T08:29:16;101287.06;;;7.55;100.00
60244;BME280;46106;51.468;5.814;2023-04-06T08:31:42;101285.69;;;7.48;100.00
60244;BME280;46106;51.468;5.814;2023-04-06T08:34:07;101281.59;;;7.55;100.00
60244;BME280;46106;51.468;5.814;2023-04-06T08:36:33;101281.09;;;7.48;100.00
60244;BME280;46106;51.468;5.814;2023-04-06T08:39:00;101290.47;;;7.59;100.00
60244;BME280;46106;51.468;5.814;2023-04-06T08:41:26;101282.66;;;7.52;100.00
60244;BME280;46106;51.468;5.814;2023-04-06T08:43:59;101286.44;;;7.66;100.00
60244;BME280;46106;51.468;5.814;2023-04-06T08:46:30;101281.00;;;7.80;100.00
60244;BME280;46106;51.468;5.814;2023-04-06T08:48:57;101283.72;;;7.80;100.00
60244;BME280;46106;51.468;5.814;2023-04-06T08:51:23;101283.84;;;7.93;100.00
60244;BME280;46106;51.468;5.814;2023-04-06T08:53:54;101287.88;;;8.02;100.00
60244;BME280;46106;51.468;5.814;2023-04-06T08:56:29;101292.88;;;8.24;100.00
60244;BME280;46106;51.468;5.814;2023-04-06T08:58:55;101281.50;;;8.32;100.00
60244;BME280;46106;51.468;5.814;2023-04-06T09:01:26;101287.81;;;8.32;100.00
60244;BME280;46106;51.468;5.814;2023-04-06T09:03:56;101291.59;;;8.29;100.00
60244;BME280;46106;51.468;5.814;2023-04-06T09:06:22;101290.78;;;8.43;100.00
60244;BME280;46106;51.468;5.814;2023-04-06T09:08:48;101285.03;;;8.62;98.04
60244;BME280;46106;51.468;5.814;2023-04-06T09:11:14;101281.03;;;8.54;100.00
60244;BME280;46106;51.468;5.814;2023-04-06T09:13:47;101293.53;;;8.58;99.03
60244;BME280;46106;51.468;5.814;2023-04-06T09:16:13;101289.78;;;8.59;98.34
60244;BME280;46106;51.468;5.814;2023-04-06T09:18:39;101288.03;;;8.72;99.80
60244;BME280;46106;51.468;5.814;2023-04-06T09:21:06;101295.34;;;8.72;98.46
60244;BME280;46106;51.468;5.814;2023-04-06T09:23:33;101284.03;;;8.92;93.92
60244;BME280;46106;51.468;5.814;2023-04-06T09:26:12;101295.16;;;9.16;93.40
60244;BME280;46106;51.468;5.814;2023-04-06T09:31:10;101286.09;;;8.89;94.87
60244;BME280;46106;51.468;5.814;2023-04-06T09:33:41;101289.38;;;8.94;96.48
60244;BME280;46106;51.468;5.814;2023-04-06T09:36:10;101296.88;;;8.90;98.04
60244;BME280;46106;51.468;5.814;2023-04-06T09:38:57;101290.91;;;9.12;95.78
60244;BME280;46106;51.468;5.814;2023-04-06T09:41:26;101289.44;;;9.07;97.15
60244;BME280;46106;51.468;5.814;2023-04-06T09:44:02;101284.56;;;9.12;97.36
60244;BME280;46106;51.468;5.814;2023-04-06T09:46:32;101284.03;;;9.19;96.41
60244;BME280;46106;51.468;5.814;2023-04-06T09:49:00;101284.75;;;9.23;97.70
60244;BME280;46106;51.468;5.814;2023-04-06T09:51:31;101289.38;;;9.35;95.01
60244;BME280;46106;51.468;5.814;2023-04-06T09:54:00;101280.13;;;9.24;96.54
60244;BME280;46106;51.468;5.814;2023-04-06T09:56:31;101296.03;;;9.31;94.88
60244;BME280;46106;51.468;5.814;2023-04-06T09:59:02;101277.66;;;9.33;97.29
60244;BME280;46106;51.468;5.814;2023-04-06T10:01:32;101267.31;;;9.38;98.54
60244;BME280;46106;51.468;5.814;2023-04-06T10:06:27;101281.06;;;9.77;95.56
60244;BME280;46106;51.468;5.814;2023-04-06T10:08:55;101291.72;;;9.94;95.96
60244;BME280;46106;51.468;5.814;2023-04-06T10:11:21;101278.38;;;10.03;92.84
60244;BME280;46106;51.468;5.814;2023-04-06T10:13:48;101296.94;;;10.38;92.02
60244;BME280;46106;51.468;5.814;2023-04-06T10:16:14;101287.50;;;10.29;93.93
60244;BME280;46106;51.468;5.814;2023-04-06T10:18:45;101288.06;;;10.34;93.13
60244;BME280;46106;51.468;5.814;2023-04-06T10:21:15;101289.63;;;10.51;93.81
60244;BME280;46106;51.468;5.814;2023-04-06T10:23:45;101290.91;;;10.71;88.04
60244;BME280;46106;51.468;5.814;2023-04-06T10:26:16;101291.66;;;10.86;87.21
60244;BME280;46106;51.468;5.814;2023-04-06T10:28:46;101288.66;;;11.02;83.23
60244;BME280;46106;51.468;5.814;2023-04-06T10:31:12;101295.50;;;10.71;85.43
60244;BME280;46106;51.468;5.814;2023-04-06T10:33:38;101294.94;;;10.65;86.52
60244;BME280;46106;51.468;5.814;2023-04-06T10:36:22;101293.00;;;10.55;88.63
60244;BME280;46106;51.468;5.814;2023-04-06T10:38:57;101297.19;;;10.35;91.42
60244;BME280;46106;51.468;5.814;2023-04-06T10:41:24;101298.81;;;10.37;90.72
60244;BME280;46106;51.468;5.814;2023-04-06T10:43:57;101303.06;;;10.67;92.90
60244;BME280;46106;51.468;5.814;2023-04-06T10:46:28;101295.41;;;10.46;91.83
60244;BME280;46106;51.468;5.814;2023-04-06T10:48:53;101296.47;;;10.31;93.17
60244;BME280;46106;51.468;5.814;2023-04-06T10:51:24;101304.13;;;10.13;97.39
60244;BME280;46106;51.468;5.814;2023-04-06T10:53:53;101306.94;;;10.11;99.26
60244;BME280;46106;51.468;5.814;2023-04-06T10:56:22;101296.00;;;9.99;100.00
60244;BME280;46106;51.468;5.814;2023-04-06T10:58:49;101295.66;;;10.03;100.00
60244;BME280;46106;51.468;5.814;2023-04-06T11:01:16;101291.28;;;9.88;100.00
60244;BME280;46106;51.468;5.814;2023-04-06T11:03:54;101292.38;;;9.98;100.00
60244;BME280;46106;51.468;5.814;2023-04-06T11:08:45;101291.31;;;10.14;100.00
60244;BME280;46106;51.468;5.814;2023-04-06T11:11:13;101285.63;;;10.04;100.00
60244;BME280;46106;51.468;5.814;2023-04-06T11:13:54;101291.72;;;9.94;100.00
60244;BME280;46106;51.468;5.814;2023-04-06T11:16:28;101293.50;;;9.96;100.00
60244;BME280;46106;51.468;5.814;2023-04-06T11:21:45;101294.44;;;9.82;100.00
60244;BME280;46106;51.468;5.814;2023-04-06T11:24:20;101284.63;;;9.92;100.00
60244;BME280;46106;51.468;5.814;2023-04-06T11:26:57;101280.63;;;9.70;100.00
60244;BME280;46106;51.468;5.814;2023-04-06T11:29:25;101287.09;;;9.69;100.00
60244;BME280;46106;51.468;5.814;2023-04-06T11:32:02;101270.38;;;9.87;100.00
60244;BME280;46106;51.468;5.814;2023-04-06T11:34:29;101277.16;;;9.81;100.00
60244;BME280;46106;51.468;5.814;2023-04-06T11:36:57;101268.56;;;9.60;100.00
60244;BME280;46106;51.468;5.814;2023-04-06T11:39:25;101278.69;;;9.45;100.00
60244;BME280;46106;51.468;5.814;2023-04-06T11:41:57;101278.78;;;9.44;100.00
60244;BME280;46106;51.468;5.814;2023-04-06T11:44:36;101284.78;;;9.36;100.00
60244;BME280;46106;51.468;5.814;2023-04-06T11:47:03;101275.28;;;9.14;100.00
60244;BME280;46106;51.468;5.814;2023-04-06T11:49:30;101283.19;;;9.19;100.00
60244;BME280;46106;51.468;5.814;2023-04-06T11:51:56;101263.47;;;9.14;100.00
60244;BME280;46106;51.468;5.814;2023-04-06T11:54:36;101247.84;;;8.89;100.00
60244;BME280;46106;51.468;5.814;2023-04-06T11:57:04;101263.97;;;9.06;100.00
60244;BME280;46106;51.468;5.814;2023-04-06T11:59:31;101262.38;;;8.89;100.00
60244;BME280;46106;51.468;5.814;2023-04-06T12:02:01;101257.13;;;8.86;100.00
60244;BME280;46106;51.468;5.814;2023-04-06T12:04:27;101267.56;;;8.79;100.00
60244;BME280;46106;51.468;5.814;2023-04-06T12:06:52;101271.06;;;8.81;100.00
60244;BME280;46106;51.468;5.814;2023-04-06T12:09:18;101240.66;;;8.59;100.00
60244;BME280;46106;51.468;5.814;2023-04-06T12:11:44;101265.41;;;8.70;100.00
60244;BME280;46106;51.468;5.814;2023-04-06T12:14:10;101251.19;;;8.65;100.00
60244;BME280;46106;51.468;5.814;2023-04-06T12:16:39;101258.31;;;8.68;100.00
60244;BME280;46106;51.468;5.814;2023-04-06T12:19:06;101256.84;;;8.62;100.00
60244;BME280;46106;51.468;5.814;2023-04-06T12:21:32;101262.09;;;8.65;100.00
60244;BME280;46106;51.468;5.814;2023-04-06T12:23:58;101248.84;;;8.59;100.00
60244;BME280;46106;51.468;5.814;2023-04-06T12:26:25;101254.13;;;8.62;100.00
60244;BME280;46106;51.468;5.814;2023-04-06T12:28:51;101252.53;;;8.72;100.00
60244;BME280;46106;51.468;5.814;2023-04-06T12:31:17;101252.31;;;8.90;100.00
60244;BME280;46106;51.468;5.814;2023-04-06T12:33:46;101247.63;;;8.92;100.00
60244;BME280;46106;51.468;5.814;2023-04-06T12:36:16;101250.47;;;8.90;100.00
60244;BME280;46106;51.468;5.814;2023-04-06T12:38:44;101250.13;;;9.09;100.00
60244;BME280;46106;51.468;5.814;2023-04-06T12:41:11;101245.53;;;9.10;100.00
60244;BME280;46106;51.468;5.814;2023-04-06T12:43:37;101236.50;;;8.95;100.00
60244;BME280;46106;51.468;5.814;2023-04-06T12:46:03;101233.88;;;8.93;100.00
60244;BME280;46106;51.468;5.814;2023-04-06T12:48:28;101230.91;;;9.11;100.00
60244;BME280;46106;51.468;5.814;2023-04-06T12:50:57;101238.13;;;9.12;100.00
60244;BME280;46106;51.468;5.814;2023-04-06T12:53:23;101221.97;;;8.94;100.00
60244;BME280;46106;51.468;5.814;2023-04-06T12:55:48;101230.09;;;8.81;100.00
60244;BME280;46106;51.468;5.814;2023-04-06T12:58:14;101226.69;;;8.92;100.00